sensor_id;sensor_type;location;lat;lon;timestamp;pressure;altitude;pressure_sealevel;temperature;humidity
30967;BME280;17649;51.836;8.330;2024-02-21T00:01:36;101638.81;;;9.18;100.00
30967;BME280;17649;51.836;8.330;2024-02-21T00:04:36;101630.44;;;9.12;100.00
30967;BME280;17649;51.836;8.330;2024-02-21T00:07:38;101619.97;;;9.16;100.00
30967;BME280;17649;51.836;8.330;2024-02-21T00:10:38;101625.41;;;9.09;100.00
30967;BME280;17649;51.836;8.330;2024-02-21T00:13:39;101626.69;;;9.20;100.00
30967;BME280;17649;51.836;8.330;2024-02-21T00:16:39;101621.75;;;9.14;100.00
30967;BME280;17649;51.836;8.330;2024-02-21T00:19:39;101631.88;;;9.20;100.00
30967;BME280;17649;51.836;8.330;2024-02-21T00:22:40;101627.75;;;9.15;100.00
30967;BME280;17649;51.836;8.330;2024-02-21T00:25:40;101621.91;;;9.35;100.00
30967;BME280;17649;51.836;8.330;2024-02-21T00:28:40;101608.09;;;9.11;100.00
30967;BME280;17649;51.836;8.330;2024-02-21T00:31:41;101615.53;;;9.20;100.00
30967;BME280;17649;51.836;8.330;2024-02-21T00:34:41;101597.00;;;9.09;100.00
30967;BME280;17649;51.836;8.330;2024-02-21T00:37:42;101600.09;;;9.18;100.00
30967;BME280;17649;51.836;8.330;2024-02-21T00:40:42;101588.28;;;9.11;100.00
30967;BME280;17649;51.836;8.330;2024-02-21T00:43:43;101578.59;;;9.18;100.00
30967;BME280;17649;51.836;8.330;2024-02-21T00:46:43;101579.13;;;9.27;100.00
30967;BME280;17649;51.836;8.330;2024-02-21T00:49:43;101575.88;;;9.22;100.00
30967;BME280;17649;51.836;8.330;2024-02-21T00:52:44;101573.31;;;9.21;100.00
30967;BME280;17649;51.836;8.330;2024-02-21T00:55:44;101562.06;;;9.23;100.00
30967;BME280;17649;51.836;8.330;2024-02-21T00:58:45;101550.34;;;9.13;100.00
30967;BME280;17649;51.836;8.330;2024-02-21T01:01:45;101537.22;;;9.19;100.00
30967;BME280;17649;51.836;8.330;2024-02-21T01:04:45;101537.34;;;9.16;100.00
30967;BME280;17649;51.836;8.330;2024-02-21T01:07:47;101539.00;;;9.17;100.00
30967;BME280;17649;51.836;8.330;2024-02-21T01:10:48;101553.50;;;9.21;100.00
30967;BME280;17649;51.836;8.330;2024-02-21T01:13:48;101543.66;;;9.08;100.00
30967;BME280;17649;51.836;8.330;2024-02-21T01:16:48;101550.25;;;9.16;100.00
30967;BME280;17649;51.836;8.330;2024-02-21T01:19:49;101546.56;;;9.23;100.00
30967;BME280;17649;51.836;8.330;2024-02-21T01:22:49;101542.38;;;9.19;100.00
30967;BME280;17649;51.836;8.330;2024-02-21T01:25:49;101547.47;;;9.22;100.00
30967;BME280;17649;51.836;8.330;2024-02-21T01:28:50;101548.94;;;9.30;100.00
30967;BME280;17649;51.836;8.330;2024-02-21T01:31:50;101546.97;;;9.11;100.00
30967;BME280;17649;51.836;8.330;2024-02-21T01:34:51;101543.16;;;9.21;100.00
30967;BME280;17649;51.836;8.330;2024-02-21T01:37:51;101534.50;;;9.24;100.00
30967;BME280;17649;51.836;8.330;2024-02-21T01:40:52;101540.88;;;9.39;100.00
30967;BME280;17649;51.836;8.330;2024-02-21T01:43:52;101532.03;;;9.44;100.00
30967;BME280;17649;51.836;8.330;2024-02-21T01:46:52;101528.44;;;9.25;100.00
30967;BME280;17649;51.836;8.330;2024-02-21T01:49:53;101530.78;;;9.31;100.00
30967;BME280;17649;51.836;8.330;2024-02-21T01:52:54;101519.50;;;9.34;100.00
30967;BME280;17649;51.836;8.330;2024-02-21T01:55:54;101516.47;;;9.22;100.00
30967;BME280;17649;51.836;8.330;2024-02-21T01:58:55;101508.63;;;9.25;100.00
30967;BME280;17649;51.836;8.330;2024-02-21T02:01:56;101500.53;;;9.35;100.00
30967;BME280;17649;51.836;8.330;2024-02-21T02:04:57;101496.78;;;9.43;100.00
30967;BME280;17649;51.836;8.330;2024-02-21T02:07:57;101487.97;;;9.25;100.00
30967;BME280;17649;51.836;8.330;2024-02-21T02:10:58;101494.69;;;9.30;100.00
30967;BME280;17649;51.836;8.330;2024-02-21T02:13:58;101491.22;;;9.31;100.00
30967;BME280;17649;51.836;8.330;2024-02-21T02:16:59;101473.91;;;9.33;100.00
30967;BME280;17649;51.836;8.330;2024-02-21T02:19:59;101478.88;;;9.39;100.00
30967;BME280;17649;51.836;8.330;2024-02-21T02:23:06;101473.72;;;9.39;100.00
30967;BME280;17649;51.836;8.330;2024-02-21T02:26:08;101472.22;;;9.32;100.00
30967;BME280;17649;51.836;8.330;2024-02-21T02:29:09;101476.13;;;9.43;100.00
30967;BME280;17649;51.836;8.330;2024-02-21T02:32:09;101466.50;;;9.47;100.00
30967;BME280;17649;51.836;8.330;2024-02-21T02:35:09;101466.75;;;9.41;100.00
30967;BME280;17649;51.836;8.330;2024-02-21T02:38:10;101462.47;;;9.40;100.00
30967;BME280;17649;51.836;8.330;2024-02-21T02:41:11;101455.50;;;9.42;100.00
30967;BME280;17649;51.836;8.330;2024-02-21T02:44:12;101457.38;;;9.38;100.00
30967;BME280;17649;51.836;8.330;2024-02-21T02:47:12;101450.66;;;9.33;100.00
30967;BME280;17649;51.836;8.330;2024-02-21T02:50:13;101447.69;;;9.43;100.00
30967;BME280;17649;51.836;8.330;2024-02-21T02:53:13;101426.25;;;9.41;100.00
30967;BME280;17649;51.836;8.330;2024-02-21T02:56:15;101428.25;;;9.33;100.00
30967;BME280;17649;51.836;8.330;2024-02-21T02:59:15;101425.97;;;9.25;100.00
30967;BME280;17649;51.836;8.330;2024-02-21T03:05:21;101405.44;;;9.22;100.00
30967;BME280;17649;51.836;8.330;2024-02-21T03:08:22;101397.63;;;9.24;100.00
30967;BME280;17649;51.836;8.330;2024-02-21T03:11:22;101379.50;;;9.25;100.00
30967;BME280;17649;51.836;8.330;2024-02-21T03:14:29;101373.69;;;9.19;100.00
30967;BME280;17649;51.836;8.330;2024-02-21T03:17:30;101376.22;;;9.20;100.00
30967;BME280;17649;51.836;8.330;2024-02-21T03:20:30;101370.34;;;9.17;100.00
30967;BME280;17649;51.836;8.330;2024-02-21T03:26:32;101366.47;;;9.05;100.00
30967;BME280;17649;51.836;8.330;2024-02-21T03:29:33;101368.78;;;9.13;100.00
30967;BME280;17649;51.836;8.330;2024-02-21T03:32:33;101370.78;;;9.05;100.00
30967;BME280;17649;51.836;8.330;2024-02-21T03:35:34;101379.72;;;9.19;100.00
30967;BME280;17649;51.836;8.330;2024-02-21T03:38:34;101382.19;;;9.22;100.00
30967;BME280;17649;51.836;8.330;2024-02-21T03:41:35;101387.44;;;9.19;100.00
30967;BME280;17649;51.836;8.330;2024-02-21T03:44:36;101385.56;;;9.24;100.00
30967;BME280;17649;51.836;8.330;2024-02-21T03:47:36;101401.06;;;9.46;100.00
30967;BME280;17649;51.836;8.330;2024-02-21T03:50:36;101410.69;;;9.43;100.00
30967;BME280;17649;51.836;8.330;2024-02-21T03:53:37;101406.44;;;9.42;100.00
30967;BME280;17649;51.836;8.330;2024-02-21T03:56:38;101411.66;;;9.40;100.00
30967;BME280;17649;51.836;8.330;2024-02-21T03:59:39;101399.47;;;9.44;100.00
30967;BME280;17649;51.836;8.330;2024-02-21T04:02:40;101397.97;;;9.38;100.00
30967;BME280;17649;51.836;8.330;2024-02-21T04:05:40;101379.91;;;9.37;100.00
30967;BME280;17649;51.836;8.330;2024-02-21T04:08:40;101378.53;;;9.28;100.00
30967;BME280;17649;51.836;8.330;2024-02-21T04:11:41;101384.16;;;9.39;100.00
30967;BME280;17649;51.836;8.330;2024-02-21T04:14:41;101382.19;;;9.22;100.00
30967;BME280;17649;51.836;8.330;2024-02-21T04:17:42;101384.41;;;9.32;100.00
30967;BME280;17649;51.836;8.330;2024-02-21T04:20:42;101384.72;;;9.24;100.00
30967;BME280;17649;51.836;8.330;2024-02-21T04:23:43;101404.34;;;9.28;100.00
30967;BME280;17649;51.836;8.330;2024-02-21T04:26:43;101388.47;;;9.39;100.00
30967;BME280;17649;51.836;8.330;2024-02-21T04:29:44;101388.28;;;9.43;100.00
30967;BME280;17649;51.836;8.330;2024-02-21T04:32:44;101393.38;;;9.45;100.00
30967;BME280;17649;51.836;8.330;2024-02-21T04:35:44;101388.47;;;9.39;100.00
30967;BME280;17649;51.836;8.330;2024-02-21T04:38:45;101392.81;;;9.37;100.00
30967;BME280;17649;51.836;8.330;2024-02-21T04:41:45;101392.44;;;9.47;100.00
30967;BME280;17649;51.836;8.330;2024-02-21T04:44:45;101388.88;;;9.28;100.00
30967;BME280;17649;51.836;8.330;2024-02-21T04:47:46;101394.94;;;9.27;100.00
30967;BME280;17649;51.836;8.330;2024-02-21T04:50:47;101392.09;;;9.33;100.00
30967;BME280;17649;51.836;8.330;2024-02-21T04:53:47;101388.66;;;9.56;100.00
30967;BME280;17649;51.836;8.330;2024-02-21T04:56:47;101389.97;;;9.44;100.00
30967;BME280;17649;51.836;8.330;2024-02-21T04:59:48;101386.09;;;9.33;100.00
30967;BME280;17649;51.836;8.330;2024-02-21T05:02:48;101404.34;;;9.28;100.00
30967;BME280;17649;51.836;8.330;2024-02-21T05:05:48;101397.16;;;9.36;100.00
30967;BME280;17649;51.836;8.330;2024-02-21T05:08:49;101399.34;;;9.47;100.00
30967;BME280;17649;51.836;8.330;2024-02-21T05:11:49;101401.47;;;9.36;100.00
30967;BME280;17649;51.836;8.330;2024-02-21T05:14:49;101412.69;;;9.35;100.00
30967;BME280;17649;51.836;8.330;2024-02-21T05:17:49;101399.41;;;9.22;100.00
30967;BME280;17649;51.836;8.330;2024-02-21T05:20:50;101379.38;;;9.50;100.00
30967;BME280;17649;51.836;8.330;2024-02-21T05:23:51;101375.03;;;9.52;100.00
30967;BME280;17649;51.836;8.330;2024-02-21T05:26:51;101374.47;;;9.44;100.00
30967;BME280;17649;51.836;8.330;2024-02-21T05:29:53;101370.31;;;9.40;100.00
30967;BME280;17649;51.836;8.330;2024-02-21T05:32:53;101354.81;;;9.40;100.00
30967;BME280;17649;51.836;8.330;2024-02-21T05:35:54;101340.91;;;9.21;100.00
30967;BME280;17649;51.836;8.330;2024-02-21T05:38:54;101346.56;;;9.31;100.00
30967;BME280;17649;51.836;8.330;2024-02-21T05:41:57;101340.94;;;9.43;100.00
30967;BME280;17649;51.836;8.330;2024-02-21T05:44:58;101338.66;;;9.35;100.00
30967;BME280;17649;51.836;8.330;2024-02-21T05:47:58;101338.38;;;9.19;100.00
30967;BME280;17649;51.836;8.330;2024-02-21T05:51:01;101340.69;;;9.27;100.00
30967;BME280;17649;51.836;8.330;2024-02-21T05:54:02;101335.00;;;9.41;100.00
30967;BME280;17649;51.836;8.330;2024-02-21T05:57:02;101328.31;;;9.35;100.00
30967;BME280;17649;51.836;8.330;2024-02-21T06:00:05;101320.63;;;9.34;100.00
30967;BME280;17649;51.836;8.330;2024-02-21T06:03:05;101324.34;;;9.48;100.00
30967;BME280;17649;51.836;8.330;2024-02-21T06:06:06;101325.06;;;9.52;100.00
30967;BME280;17649;51.836;8.330;2024-02-21T06:09:06;101321.34;;;9.37;100.00
30967;BME280;17649;51.836;8.330;2024-02-21T06:12:06;101325.06;;;9.52;100.00
30967;BME280;17649;51.836;8.330;2024-02-21T06:15:07;101327.47;;;9.35;100.00
30967;BME280;17649;51.836;8.330;2024-02-21T06:18:07;101330.97;;;9.34;100.00
30967;BME280;17649;51.836;8.330;2024-02-21T06:21:08;101337.50;;;9.20;100.00
30967;BME280;17649;51.836;8.330;2024-02-21T06:24:08;101324.94;;;9.33;100.00
30967;BME280;17649;51.836;8.330;2024-02-21T06:27:08;101322.22;;;9.38;100.00
30967;BME280;17649;51.836;8.330;2024-02-21T06:30:09;101309.34;;;9.36;100.00
30967;BME280;17649;51.836;8.330;2024-02-21T06:33:10;101310.81;;;9.64;100.00
30967;BME280;17649;51.836;8.330;2024-02-21T06:36:10;101292.50;;;9.48;100.00
30967;BME280;17649;51.836;8.330;2024-02-21T06:39:10;101295.88;;;9.50;100.00
30967;BME280;17649;51.836;8.330;2024-02-21T06:42:11;101296.19;;;9.42;100.00
30967;BME280;17649;51.836;8.330;2024-02-21T06:45:12;101292.16;;;9.57;100.00
30967;BME280;17649;51.836;8.330;2024-02-21T06:48:14;101276.25;;;9.46;100.00
30967;BME280;17649;51.836;8.330;2024-02-21T06:51:14;101284.41;;;9.57;100.00
30967;BME280;17649;51.836;8.330;2024-02-21T06:54:15;101288.81;;;9.55;100.00
30967;BME280;17649;51.836;8.330;2024-02-21T06:57:15;101278.06;;;9.64;100.00
30967;BME280;17649;51.836;8.330;2024-02-21T07:00:16;101271.38;;;9.60;100.00
30967;BME280;17649;51.836;8.330;2024-02-21T07:03:17;101267.75;;;9.64;100.00
30967;BME280;17649;51.836;8.330;2024-02-21T07:06:17;101262.00;;;9.57;100.00
30967;BME280;17649;51.836;8.330;2024-02-21T07:09:17;101256.91;;;9.34;100.00
30967;BME280;17649;51.836;8.330;2024-02-21T07:12:18;101260.91;;;9.63;100.00
30967;BME280;17649;51.836;8.330;2024-02-21T07:15:19;101258.06;;;9.69;100.00
30967;BME280;17649;51.836;8.330;2024-02-21T07:18:20;101267.44;;;9.72;100.00
30967;BME280;17649;51.836;8.330;2024-02-21T07:21:20;101270.88;;;9.72;100.00
30967;BME280;17649;51.836;8.330;2024-02-21T07:24:21;101270.22;;;9.88;100.00
30967;BME280;17649;51.836;8.330;2024-02-21T07:27:24;101282.75;;;9.76;100.00
30967;BME280;17649;51.836;8.330;2024-02-21T07:30:30;101280.03;;;9.59;100.00
30967;BME280;17649;51.836;8.330;2024-02-21T07:33:31;101277.72;;;9.94;100.00
30967;BME280;17649;51.836;8.330;2024-02-21T07:36:31;101271.97;;;9.87;100.00
30967;BME280;17649;51.836;8.330;2024-02-21T07:39:36;101269.97;;;10.14;100.00
30967;BME280;17649;51.836;8.330;2024-02-21T07:42:37;101268.81;;;10.01;100.00
30967;BME280;17649;51.836;8.330;2024-02-21T07:45:37;101264.06;;;10.10;100.00
30967;BME280;17649;51.836;8.330;2024-02-21T07:48:39;101261.06;;;10.01;100.00
30967;BME280;17649;51.836;8.330;2024-02-21T07:51:39;101260.91;;;10.04;100.00
30967;BME280;17649;51.836;8.330;2024-02-21T07:54:40;101268.53;;;10.07;100.00
30967;BME280;17649;51.836;8.330;2024-02-21T07:57:41;101260.00;;;10.05;100.00
30967;BME280;17649;51.836;8.330;2024-02-21T08:00:41;101263.72;;;9.99;100.00
30967;BME280;17649;51.836;8.330;2024-02-21T08:03:42;101264.59;;;10.19;100.00
30967;BME280;17649;51.836;8.330;2024-02-21T08:06:42;101259.44;;;10.19;100.00
30967;BME280;17649;51.836;8.330;2024-02-21T08:09:45;101255.75;;;10.04;100.00
30967;BME280;17649;51.836;8.330;2024-02-21T08:12:45;101251.22;;;10.09;100.00
30967;BME280;17649;51.836;8.330;2024-02-21T08:15:45;101243.22;;;10.15;100.00
30967;BME280;17649;51.836;8.330;2024-02-21T08:18:46;101232.84;;;10.35;100.00
30967;BME280;17649;51.836;8.330;2024-02-21T08:21:48;101224.03;;;10.39;100.00
30967;BME280;17649;51.836;8.330;2024-02-21T08:24:48;101218.13;;;10.17;100.00
30967;BME280;17649;51.836;8.330;2024-02-21T08:27:48;101204.69;;;10.29;100.00
30967;BME280;17649;51.836;8.330;2024-02-21T08:30:49;101212.09;;;10.16;100.00
30967;BME280;17649;51.836;8.330;2024-02-21T08:33:49;101207.56;;;10.61;100.00
30967;BME280;17649;51.836;8.330;2024-02-21T08:36:50;101216.56;;;10.71;100.00
30967;BME280;17649;51.836;8.330;2024-02-21T08:39:50;101201.66;;;10.95;100.00
30967;BME280;17649;51.836;8.330;2024-02-21T08:42:50;101206.97;;;10.92;100.00
30967;BME280;17649;51.836;8.330;2024-02-21T08:45:51;101203.28;;;11.15;100.00
30967;BME280;17649;51.836;8.330;2024-02-21T08:48:51;101190.97;;;11.01;100.00
30967;BME280;17649;51.836;8.330;2024-02-21T08:51:52;101185.38;;;10.74;100.00
30967;BME280;17649;51.836;8.330;2024-02-21T08:54:55;101186.44;;;11.06;100.00
30967;BME280;17649;51.836;8.330;2024-02-21T08:57:55;101186.69;;;11.19;100.00
30967;BME280;17649;51.836;8.330;2024-02-21T09:00:56;101181.03;;;10.74;100.00
30967;BME280;17649;51.836;8.330;2024-02-21T09:03:56;101176.03;;;11.25;100.00
30967;BME280;17649;51.836;8.330;2024-02-21T09:07:00;101178.59;;;11.08;100.00
30967;BME280;17649;51.836;8.330;2024-02-21T09:10:01;101190.13;;;11.19;100.00
30967;BME280;17649;51.836;8.330;2024-02-21T09:13:01;101185.38;;;11.27;100.00
30967;BME280;17649;51.836;8.330;2024-02-21T09:16:04;101183.72;;;11.26;100.00
30967;BME280;17649;51.836;8.330;2024-02-21T09:19:04;101186.28;;;11.09;100.00
30967;BME280;17649;51.836;8.330;2024-02-21T09:22:04;101179.84;;;11.18;100.00
30967;BME280;17649;51.836;8.330;2024-02-21T09:25:05;101179.38;;;11.27;100.00
30967;BME280;17649;51.836;8.330;2024-02-21T09:28:06;101185.75;;;11.02;100.00
30967;BME280;17649;51.836;8.330;2024-02-21T09:31:06;101185.94;;;11.17;100.00
30967;BME280;17649;51.836;8.330;2024-02-21T09:34:06;101183.94;;;11.04;100.00
30967;BME280;17649;51.836;8.330;2024-02-21T09:37:07;101167.97;;;11.31;100.00
30967;BME280;17649;51.836;8.330;2024-02-21T09:40:08;101173.28;;;11.28;100.00
30967;BME280;17649;51.836;8.330;2024-02-21T09:43:09;101156.69;;;11.49;100.00
30967;BME280;17649;51.836;8.330;2024-02-21T09:46:14;101147.28;;;11.64;100.00
30967;BME280;17649;51.836;8.330;2024-02-21T09:49:32;101144.41;;;12.03;100.00
30967;BME280;17649;51.836;8.330;2024-02-21T09:52:35;101138.44;;;11.68;100.00
30967;BME280;17649;51.836;8.330;2024-02-21T09:55:37;101134.63;;;11.58;100.00
30967;BME280;17649;51.836;8.330;2024-02-21T09:58:40;101131.53;;;11.51;100.00
30967;BME280;17649;51.836;8.330;2024-02-21T10:01:42;101133.16;;;11.70;100.00
30967;BME280;17649;51.836;8.330;2024-02-21T10:04:44;101122.53;;;12.24;100.00
30967;BME280;17649;51.836;8.330;2024-02-21T10:07:44;101122.50;;;11.58;100.00
30967;BME280;17649;51.836;8.330;2024-02-21T10:10:46;101129.13;;;11.31;100.00
30967;BME280;17649;51.836;8.330;2024-02-21T10:13:46;101115.97;;;11.51;100.00
30967;BME280;17649;51.836;8.330;2024-02-21T10:16:57;101109.84;;;11.70;100.00
30967;BME280;17649;51.836;8.330;2024-02-21T10:20:11;101110.31;;;11.43;100.00
30967;BME280;17649;51.836;8.330;2024-02-21T10:23:11;101113.56;;;11.31;100.00
30967;BME280;17649;51.836;8.330;2024-02-21T10:26:12;101115.69;;;11.23;100.00
30967;BME280;17649;51.836;8.330;2024-02-21T10:29:13;101121.94;;;11.01;100.00
30967;BME280;17649;51.836;8.330;2024-02-21T10:32:13;101124.97;;;11.10;100.00
30967;BME280;17649;51.836;8.330;2024-02-21T10:35:14;101122.69;;;11.21;100.00
30967;BME280;17649;51.836;8.330;2024-02-21T10:38:14;101113.81;;;11.59;100.00
30967;BME280;17649;51.836;8.330;2024-02-21T10:41:14;101116.97;;;11.14;100.00
30967;BME280;17649;51.836;8.330;2024-02-21T10:44:19;101109.16;;;10.62;100.00
30967;BME280;17649;51.836;8.330;2024-02-21T10:47:22;101109.44;;;11.10;100.00
30967;BME280;17649;51.836;8.330;2024-02-21T10:50:25;101106.41;;;11.01;100.00
30967;BME280;17649;51.836;8.330;2024-02-21T10:53:44;101089.19;;;11.18;100.00
30967;BME280;17649;51.836;8.330;2024-02-21T10:56:49;101073.63;;;11.68;100.00
30967;BME280;17649;51.836;8.330;2024-02-21T10:59:50;101073.78;;;11.82;100.00
30967;BME280;17649;51.836;8.330;2024-02-21T11:02:51;101071.28;;;12.12;100.00
30967;BME280;17649;51.836;8.330;2024-02-21T11:05:52;101059.75;;;11.69;100.00
30967;BME280;17649;51.836;8.330;2024-02-21T11:09:03;101047.19;;;11.94;100.00
30967;BME280;17649;51.836;8.330;2024-02-21T11:12:05;101029.03;;;11.79;100.00
30967;BME280;17649;51.836;8.330;2024-02-21T11:15:06;101026.34;;;11.80;100.00
30967;BME280;17649;51.836;8.330;2024-02-21T11:18:06;101026.25;;;12.29;100.00
30967;BME280;17649;51.836;8.330;2024-02-21T11:21:06;101015.31;;;11.92;100.00
30967;BME280;17649;51.836;8.330;2024-02-21T11:24:07;101011.34;;;11.70;100.00
30967;BME280;17649;51.836;8.330;2024-02-21T11:27:20;101008.66;;;11.71;100.00
30967;BME280;17649;51.836;8.330;2024-02-21T11:30:27;101005.34;;;11.85;100.00
30967;BME280;17649;51.836;8.330;2024-02-21T11:33:27;101002.47;;;11.74;100.00
30967;BME280;17649;51.836;8.330;2024-02-21T11:36:27;100998.56;;;11.33;100.00
30967;BME280;17649;51.836;8.330;2024-02-21T11:39:28;100982.34;;;11.30;100.00
30967;BME280;17649;51.836;8.330;2024-02-21T11:45:30;100965.94;;;11.29;100.00
30967;BME280;17649;51.836;8.330;2024-02-21T11:48:32;100950.81;;;11.22;100.00
30967;BME280;17649;51.836;8.330;2024-02-21T11:51:34;100948.38;;;11.03;100.00
30967;BME280;17649;51.836;8.330;2024-02-21T11:54:34;100939.44;;;11.09;100.00
30967;BME280;17649;51.836;8.330;2024-02-21T11:57:35;100940.38;;;10.90;100.00
30967;BME280;17649;51.836;8.330;2024-02-21T12:00:41;100942.69;;;10.79;100.00
30967;BME280;17649;51.836;8.330;2024-02-21T12:03:42;100936.00;;;10.75;100.00
30967;BME280;17649;51.836;8.330;2024-02-21T12:06:49;100942.28;;;10.69;100.00
30967;BME280;17649;51.836;8.330;2024-02-21T12:09:50;100937.19;;;10.85;100.00
30967;BME280;17649;51.836;8.330;2024-02-21T12:12:51;100938.09;;;10.84;100.00
30967;BME280;17649;51.836;8.330;2024-02-21T12:15:52;100930.41;;;10.83;100.00
30967;BME280;17649;51.836;8.330;2024-02-21T12:18:53;100929.47;;;11.34;100.00
30967;BME280;17649;51.836;8.330;2024-02-21T12:21:53;100914.88;;;11.16;100.00
30967;BME280;17649;51.836;8.330;2024-02-21T12:24:55;100910.75;;;10.96;100.00
30967;BME280;17649;51.836;8.330;2024-02-21T12:27:55;100910.09;;;11.08;100.00
30967;BME280;17649;51.836;8.330;2024-02-21T12:30:56;100878.47;;;11.66;100.00
30967;BME280;17649;51.836;8.330;2024-02-21T12:33:56;100861.97;;;12.29;100.00
30967;BME280;17649;51.836;8.330;2024-02-21T12:36:58;100860.69;;;12.36;100.00
30967;BME280;17649;51.836;8.330;2024-02-21T12:39:59;100857.09;;;12.08;100.00
30967;BME280;17649;51.836;8.330;2024-02-21T12:43:00;100858.97;;;11.75;100.00
30967;BME280;17649;51.836;8.330;2024-02-21T12:46:03;100847.84;;;11.88;100.00
30967;BME280;17649;51.836;8.330;2024-02-21T12:49:04;100851.28;;;11.57;100.00
30967;BME280;17649;51.836;8.330;2024-02-21T12:52:04;100835.66;;;11.43;100.00
30967;BME280;17649;51.836;8.330;2024-02-21T12:55:05;100849.31;;;11.47;100.00
30967;BME280;17649;51.836;8.330;2024-02-21T12:58:05;100834.19;;;11.39;100.00
30967;BME280;17649;51.836;8.330;2024-02-21T13:01:07;100826.06;;;11.29;100.00
30967;BME280;17649;51.836;8.330;2024-02-21T13:04:07;100800.38;;;11.56;100.00
30967;BME280;17649;51.836;8.330;2024-02-21T13:07:08;100780.59;;;12.15;100.00
30967;BME280;17649;51.836;8.330;2024-02-21T13:10:08;100758.47;;;12.24;100.00
30967;BME280;17649;51.836;8.330;2024-02-21T13:13:08;100734.75;;;12.44;100.00
30967;BME280;17649;51.836;8.330;2024-02-21T13:16:09;100738.16;;;12.45;100.00
30967;BME280;17649;51.836;8.330;2024-02-21T13:19:10;100739.09;;;12.44;100.00
30967;BME280;17649;51.836;8.330;2024-02-21T13:22:10;100741.16;;;12.53;100.00
30967;BME280;17649;51.836;8.330;2024-02-21T13:25:11;100721.50;;;12.20;100.00
30967;BME280;17649;51.836;8.330;2024-02-21T13:28:15;100725.38;;;12.13;100.00
30967;BME280;17649;51.836;8.330;2024-02-21T13:31:16;100711.38;;;12.16;100.00
30967;BME280;17649;51.836;8.330;2024-02-21T13:34:17;100682.19;;;11.84;100.00
30967;BME280;17649;51.836;8.330;2024-02-21T13:37:17;100655.41;;;12.40;100.00
30967;BME280;17649;51.836;8.330;2024-02-21T13:40:18;100640.53;;;12.15;100.00
30967;BME280;17649;51.836;8.330;2024-02-21T13:43:18;100613.63;;;12.72;100.00
30967;BME280;17649;51.836;8.330;2024-02-21T13:46:19;100621.72;;;12.67;100.00
30967;BME280;17649;51.836;8.330;2024-02-21T13:49:20;100620.88;;;12.67;100.00
30967;BME280;17649;51.836;8.330;2024-02-21T13:52:20;100618.81;;;12.31;100.00
30967;BME280;17649;51.836;8.330;2024-02-21T13:55:21;100621.41;;;12.31;100.00
30967;BME280;17649;51.836;8.330;2024-02-21T13:58:22;100628.41;;;12.57;100.00
30967;BME280;17649;51.836;8.330;2024-02-21T14:01:23;100627.44;;;12.31;100.00
30967;BME280;17649;51.836;8.330;2024-02-21T14:04:23;100609.72;;;12.52;100.00
30967;BME280;17649;51.836;8.330;2024-02-21T14:07:24;100596.88;;;12.36;100.00
30967;BME280;17649;51.836;8.330;2024-02-21T14:10:24;100576.13;;;12.76;100.00
30967;BME280;17649;51.836;8.330;2024-02-21T14:13:24;100574.94;;;12.81;100.00
30967;BME280;17649;51.836;8.330;2024-02-21T14:16:25;100577.56;;;13.07;100.00
30967;BME280;17649;51.836;8.330;2024-02-21T14:19:25;100559.13;;;13.62;100.00
30967;BME280;17649;51.836;8.330;2024-02-21T14:22:26;100541.63;;;13.90;100.00
30967;BME280;17649;51.836;8.330;2024-02-21T14:25:26;100542.59;;;14.13;100.00
30967;BME280;17649;51.836;8.330;2024-02-21T14:28:26;100551.75;;;13.69;100.00
30967;BME280;17649;51.836;8.330;2024-02-21T14:31:27;100541.03;;;13.23;100.00
30967;BME280;17649;51.836;8.330;2024-02-21T14:34:27;100540.84;;;13.38;100.00
30967;BME280;17649;51.836;8.330;2024-02-21T14:37:27;100535.66;;;13.26;100.00
30967;BME280;17649;51.836;8.330;2024-02-21T14:40:28;100520.84;;;13.13;100.00
30967;BME280;17649;51.836;8.330;2024-02-21T14:43:30;100501.34;;;13.21;100.00
30967;BME280;17649;51.836;8.330;2024-02-21T14:46:30;100498.63;;;13.48;100.00
30967;BME280;17649;51.836;8.330;2024-02-21T14:49:31;100484.25;;;13.04;100.00
30967;BME280;17649;51.836;8.330;2024-02-21T14:52:32;100473.66;;;13.58;100.00
30967;BME280;17649;51.836;8.330;2024-02-21T14:55:36;100463.00;;;13.86;100.00
30967;BME280;17649;51.836;8.330;2024-02-21T14:58:36;100451.94;;;13.83;100.00
30967;BME280;17649;51.836;8.330;2024-02-21T15:01:37;100427.84;;;13.81;100.00
30967;BME280;17649;51.836;8.330;2024-02-21T15:04:40;100444.25;;;13.81;100.00
30967;BME280;17649;51.836;8.330;2024-02-21T15:07:40;100446.88;;;13.45;100.00
30967;BME280;17649;51.836;8.330;2024-02-21T15:10:41;100436.56;;;13.80;100.00
30967;BME280;17649;51.836;8.330;2024-02-21T15:13:42;100433.91;;;13.68;100.00
30967;BME280;17649;51.836;8.330;2024-02-21T15:16:42;100413.28;;;13.78;100.00
30967;BME280;17649;51.836;8.330;2024-02-21T15:19:44;100386.22;;;13.57;100.00
30967;BME280;17649;51.836;8.330;2024-02-21T15:22:44;100378.13;;;13.49;100.00
30967;BME280;17649;51.836;8.330;2024-02-21T15:25:44;100365.31;;;13.22;100.00
30967;BME280;17649;51.836;8.330;2024-02-21T15:28:45;100373.53;;;13.03;100.00
30967;BME280;17649;51.836;8.330;2024-02-21T15:31:45;100378.53;;;12.80;100.00
30967;BME280;17649;51.836;8.330;2024-02-21T15:34:46;100371.38;;;12.84;100.00
30967;BME280;17649;51.836;8.330;2024-02-21T15:37:47;100373.53;;;12.52;100.00
30967;BME280;17649;51.836;8.330;2024-02-21T15:40:48;100364.41;;;12.59;100.00
30967;BME280;17649;51.836;8.330;2024-02-21T15:43:48;100352.97;;;12.74;100.00
30967;BME280;17649;51.836;8.330;2024-02-21T15:46:49;100350.09;;;12.66;100.00
30967;BME280;17649;51.836;8.330;2024-02-21T15:49:50;100344.78;;;12.68;100.00